createdAt,value
2018-08-19T00:02:05.795Z,16.50
2018-08-19T00:04:37.322Z,16.50
2018-08-19T00:07:05.434Z,16.50
2018-08-19T00:09:33.716Z,16.50
2018-08-19T00:12:01.602Z,16.40
2018-08-19T00:14:31.683Z,16.40
2018-08-19T00:17:00.478Z,16.40
2018-08-19T00:19:29.115Z,16.40
2018-08-19T00:21:56.851Z,16.40
2018-08-19T00:24:24.899Z,16.40
2018-08-19T00:26:52.534Z,16.30
2018-08-19T00:29:25.909Z,16.30
2018-08-19T00:31:54.270Z,16.20
2018-08-19T00:34:27.516Z,16.20
2018-08-19T00:36:55.451Z,16.20
2018-08-19T00:39:23.104Z,16.10
2018-08-19T00:41:50.891Z,16.10
2018-08-19T00:44:18.510Z,16.20
2018-08-19T00:46:46.198Z,16.10
2018-08-19T00:49:13.895Z,16.10
2018-08-19T00:51:47.092Z,16.00
2018-08-19T00:54:14.739Z,16.00
2018-08-19T00:56:42.487Z,16.00
2018-08-19T00:59:10.411Z,16.00
2018-08-19T01:01:38.162Z,16.00
2018-08-19T01:04:07.506Z,16.00
2018-08-19T01:06:40.892Z,16.00
2018-08-19T01:09:09.276Z,15.90
2018-08-19T01:11:37.400Z,15.90
2018-08-19T01:14:08.610Z,15.90
2018-08-19T01:16:36.314Z,15.80
2018-08-19T01:19:03.971Z,15.90
2018-08-19T01:21:32.644Z,15.90
2018-08-19T01:24:01.430Z,15.90
2018-08-19T01:26:33.327Z,15.90
2018-08-19T01:29:01.066Z,15.90
2018-08-19T01:31:28.773Z,15.90
2018-08-19T01:33:56.470Z,15.90
2018-08-19T01:36:26.659Z,15.90
2018-08-19T01:38:54.415Z,15.90
2018-08-19T01:41:22.232Z,15.90
2018-08-19T01:44:01.243Z,16.00
2018-08-19T01:46:37.162Z,16.00
2018-08-19T01:49:05.959Z,16.00
2018-08-19T01:51:35.730Z,16.00
2018-08-19T01:54:09.941Z,16.00
2018-08-19T01:56:38.079Z,16.00
2018-08-19T01:59:06.022Z,16.00
2018-08-19T02:01:44.915Z,16.00
2018-08-19T02:04:12.818Z,16.00
2018-08-19T02:06:41.458Z,16.00
2018-08-19T02:09:11.075Z,16.00
2018-08-19T02:11:38.811Z,16.00
2018-08-19T02:14:06.564Z,15.90
2018-08-19T02:16:34.276Z,15.90
2018-08-19T02:19:01.938Z,15.90
2018-08-19T02:21:29.643Z,15.90
2018-08-19T02:23:57.361Z,15.90
2018-08-19T02:26:28.695Z,15.90
2018-08-19T02:28:56.422Z,15.90
2018-08-19T02:31:24.150Z,15.80
2018-08-19T02:33:51.830Z,15.80
2018-08-19T02:36:19.545Z,15.80
2018-08-19T02:38:47.239Z,15.80
2018-08-19T02:41:14.949Z,15.70
2018-08-19T02:43:48.998Z,15.70
2018-08-19T02:46:16.959Z,15.70
2018-08-19T02:48:48.243Z,15.70
2018-08-19T02:51:17.230Z,15.70
2018-08-19T02:53:46.143Z,15.70
2018-08-19T02:56:14.449Z,15.70
2018-08-19T02:58:42.983Z,15.70
2018-08-19T03:02:15.010Z,15.60
2018-08-19T03:04:42.611Z,15.60
2018-08-19T03:07:10.298Z,15.60
2018-08-19T03:09:37.994Z,15.50
2018-08-19T03:12:09.524Z,15.50
2018-08-19T03:14:37.195Z,15.40
2018-08-19T03:17:04.903Z,15.40
2018-08-19T03:19:32.558Z,15.30
2018-08-19T03:22:00.791Z,15.30
2018-08-19T03:24:28.527Z,15.30
2018-08-19T03:26:59.119Z,15.20
2018-08-19T03:29:26.840Z,15.20
2018-08-19T03:31:59.570Z,15.20
2018-08-19T03:34:27.602Z,15.20
2018-08-19T03:36:55.938Z,15.10
2018-08-19T03:39:23.746Z,15.10
2018-08-19T03:41:51.434Z,15.10
2018-08-19T03:44:19.524Z,15.00
2018-08-19T03:46:47.249Z,15.00
2018-08-19T03:49:15.019Z,14.90
2018-08-19T03:51:42.802Z,14.90
2018-08-19T03:54:10.463Z,14.90
2018-08-19T03:56:38.210Z,14.90
2018-08-19T03:59:06.318Z,14.90
2018-08-19T04:01:42.042Z,14.90
2018-08-19T04:04:10.530Z,14.90
2018-08-19T04:06:38.985Z,14.90
2018-08-19T04:09:06.891Z,14.80
2018-08-19T04:11:34.650Z,14.80
2018-08-19T04:14:02.412Z,14.80
2018-08-19T04:16:29.978Z,14.80
2018-08-19T04:19:04.848Z,14.80
2018-08-19T04:21:32.522Z,14.80
2018-08-19T04:24:00.275Z,14.70
2018-08-19T04:26:28.633Z,14.60
2018-08-19T04:28:57.286Z,14.60
2018-08-19T04:31:24.983Z,14.60
2018-08-19T04:33:53.635Z,14.60
2018-08-19T04:36:22.478Z,14.50
2018-08-19T04:38:50.143Z,14.50
2018-08-19T04:41:18.119Z,14.50
2018-08-19T04:43:46.630Z,14.50
2018-08-19T04:46:14.367Z,14.50
2018-08-19T04:48:43.803Z,14.50
2018-08-19T04:51:11.431Z,14.50
2018-08-19T04:53:39.134Z,14.60
2018-08-19T04:56:06.838Z,14.60
2018-08-19T04:58:34.491Z,14.60
2018-08-19T05:01:02.266Z,14.60
2018-08-19T05:03:29.932Z,14.60
2018-08-19T05:05:58.238Z,14.60
2018-08-19T05:08:26.206Z,14.60
2018-08-19T05:10:55.158Z,14.60
2018-08-19T05:13:22.947Z,14.70
2018-08-19T05:15:50.674Z,14.70
2018-08-19T05:18:18.276Z,14.70
2018-08-19T05:20:45.909Z,14.70
2018-08-19T05:23:13.614Z,14.80
2018-08-19T05:25:47.014Z,14.80
2018-08-19T05:28:16.205Z,14.90
2018-08-19T05:30:44.278Z,14.90
2018-08-19T05:33:11.898Z,15.00
2018-08-19T05:35:39.570Z,15.10
2018-08-19T05:38:07.291Z,15.10
2018-08-19T05:40:35.031Z,15.20
2018-08-19T05:43:02.733Z,15.20
2018-08-19T05:45:30.407Z,15.30
2018-08-19T05:48:09.644Z,15.30
2018-08-19T05:50:37.374Z,15.40
2018-08-19T05:53:05.108Z,15.40
2018-08-19T05:55:32.802Z,15.50
2018-08-19T05:58:00.534Z,15.50
2018-08-19T06:00:28.190Z,15.60
2018-08-19T06:03:01.182Z,15.60
2018-08-19T06:05:29.698Z,15.70
2018-08-19T06:08:03.176Z,15.90
2018-08-19T06:10:30.875Z,16.00
2018-08-19T06:12:58.576Z,16.10
2018-08-19T06:15:27.442Z,16.20
2018-08-19T06:17:57.968Z,16.20
2018-08-19T06:20:29.552Z,16.40
2018-08-19T06:22:57.379Z,16.50
2018-08-19T06:25:25.147Z,16.50
2018-08-19T06:27:54.067Z,16.60
2018-08-19T06:30:21.870Z,16.70
2018-08-19T06:32:49.582Z,16.70
2018-08-19T06:35:17.279Z,16.80
2018-08-19T06:37:44.994Z,16.90
2018-08-19T06:40:14.691Z,17.00
2018-08-19T06:42:42.466Z,17.00
2018-08-19T06:45:10.954Z,17.10
2018-08-19T06:47:38.682Z,17.20
2018-08-19T06:50:15.314Z,17.30
2018-08-19T06:52:42.904Z,17.40
2018-08-19T06:55:10.638Z,17.50
2018-08-19T06:57:38.305Z,17.60
2018-08-19T07:00:09.870Z,17.70
2018-08-19T07:02:37.573Z,17.90
2018-08-19T07:05:06.183Z,17.90
2018-08-19T07:10:34.741Z,18.10
2018-08-19T07:15:56.469Z,18.20
2018-08-19T07:18:23.862Z,18.30
2018-08-19T07:20:51.462Z,18.40
2018-08-19T07:23:18.825Z,18.50
2018-08-19T07:25:46.241Z,18.50
2018-08-19T07:28:15.233Z,18.60
2018-08-19T07:30:42.906Z,18.70
2018-08-19T07:33:10.881Z,18.70
2018-08-19T07:35:38.848Z,18.80
2018-08-19T07:38:06.595Z,18.90
2018-08-19T07:40:34.278Z,19.00
2018-08-19T07:43:02.018Z,19.10
2018-08-19T07:45:29.676Z,19.10
2018-08-19T07:47:57.382Z,19.20
2018-08-19T07:50:25.907Z,19.30
2018-08-19T07:52:53.854Z,19.30
2018-08-19T07:55:21.498Z,19.50
2018-08-19T07:57:49.158Z,19.60
2018-08-19T08:00:23.750Z,19.70
2018-08-19T08:02:53.371Z,19.90
2018-08-19T08:05:21.535Z,19.90
2018-08-19T08:07:49.603Z,20.00
2018-08-19T08:10:20.854Z,20.00
2018-08-19T08:12:54.216Z,20.10
2018-08-19T08:15:22.144Z,20.20
2018-08-19T08:17:49.934Z,20.40
2018-08-19T08:20:17.538Z,20.60
2018-08-19T08:22:45.242Z,20.80
2018-08-19T08:25:12.915Z,20.80
2018-08-19T08:27:40.858Z,20.90
2018-08-19T08:30:10.240Z,21.00
2018-08-19T08:32:38.387Z,21.00
2018-08-19T08:35:07.090Z,21.10
2018-08-19T08:37:34.826Z,21.20
2018-08-19T08:40:09.470Z,21.40
2018-08-19T08:42:39.100Z,21.50
2018-08-19T08:45:07.428Z,21.50
2018-08-19T08:47:35.285Z,21.80
2018-08-19T08:50:02.833Z,22.00
2018-08-19T08:52:30.386Z,22.10
2018-08-19T08:55:01.423Z,22.40
2018-08-19T08:57:29.094Z,22.80
2018-08-19T08:59:56.774Z,23.00
2018-08-19T09:02:27.811Z,23.10
2018-08-19T09:04:55.564Z,23.20
2018-08-19T09:07:23.297Z,23.50
2018-08-19T09:09:51.006Z,23.50
2018-08-19T09:13:21.987Z,23.50
2018-08-19T09:15:49.646Z,23.60
2018-08-19T09:18:17.347Z,23.80
2018-08-19T09:20:45.027Z,23.80
2018-08-19T09:23:12.804Z,23.70
2018-08-19T09:25:40.401Z,23.60
2018-08-19T09:28:08.020Z,23.70
2018-08-19T09:30:38.236Z,23.30
2018-08-19T09:33:05.928Z,23.10
2018-08-19T09:35:35.758Z,22.90
2018-08-19T09:38:10.014Z,22.90
2018-08-19T09:40:37.775Z,22.90
2018-08-19T09:43:06.113Z,23.10
2018-08-19T09:45:33.847Z,23.20
2018-08-19T09:48:02.485Z,23.20
2018-08-19T09:50:30.419Z,23.30
2018-08-19T09:52:58.071Z,23.20
2018-08-19T09:55:31.255Z,23.30
2018-08-19T09:57:59.031Z,23.30
2018-08-19T10:00:31.260Z,23.50
2018-08-19T10:03:00.682Z,23.40
2018-08-19T10:05:32.526Z,23.50
2018-08-19T10:08:00.382Z,23.60
2018-08-19T10:10:28.250Z,23.60
2018-08-19T10:12:55.874Z,23.70
2018-08-19T10:15:23.575Z,23.60
2018-08-19T10:17:51.202Z,23.50
2018-08-19T10:20:18.866Z,23.80
2018-08-19T10:22:46.634Z,23.80
2018-08-19T10:25:16.392Z,23.80
2018-08-19T10:27:45.784Z,23.80
2018-08-19T10:30:13.690Z,23.80
2018-08-19T10:32:41.314Z,23.80
2018-08-19T10:35:14.652Z,23.90
2018-08-19T10:37:42.286Z,24.00
2018-08-19T10:40:09.914Z,23.90
2018-08-19T10:42:37.627Z,23.90
2018-08-19T10:45:12.432Z,23.90
2018-08-19T10:47:40.099Z,24.00
2018-08-19T10:50:08.042Z,24.10
2018-08-19T10:52:40.459Z,24.20
2018-08-19T10:55:09.346Z,24.30
2018-08-19T10:57:40.403Z,24.40
2018-08-19T11:00:12.706Z,24.40
2018-08-19T11:02:40.391Z,24.40
2018-08-19T11:05:08.345Z,24.30
2018-08-19T11:07:35.991Z,24.20
2018-08-19T11:10:18.493Z,24.40
2018-08-19T11:12:48.072Z,24.40
2018-08-19T11:15:28.058Z,24.50
2018-08-19T11:17:56.135Z,24.60
2018-08-19T11:20:33.042Z,24.80
2018-08-19T11:23:06.170Z,24.90
2018-08-19T11:25:33.853Z,25.00
2018-08-19T11:28:06.703Z,25.10
2018-08-19T11:30:34.354Z,24.90
2018-08-19T11:33:01.994Z,25.10
2018-08-19T11:35:34.119Z,25.30
2018-08-19T11:38:01.760Z,25.20
2018-08-19T11:40:29.342Z,25.20
2018-08-19T11:42:57.011Z,25.30
2018-08-19T11:45:24.648Z,25.30
2018-08-19T11:47:56.802Z,25.50
2018-08-19T11:50:24.445Z,25.60
2018-08-19T11:52:56.243Z,25.80
2018-08-19T11:55:24.008Z,25.80
2018-08-19T11:57:51.672Z,25.90
2018-08-19T12:00:19.354Z,25.80
2018-08-19T12:02:47.043Z,25.90
2018-08-19T12:05:14.631Z,26.10
2018-08-19T12:07:42.720Z,26.10
2018-08-19T12:10:10.394Z,25.90
2018-08-19T12:12:48.742Z,26.10
2018-08-19T12:15:16.495Z,26.40
2018-08-19T12:17:44.165Z,26.40
2018-08-19T12:20:11.895Z,26.40
2018-08-19T12:22:40.904Z,26.40
2018-08-19T12:25:08.543Z,26.60
2018-08-19T12:27:36.389Z,26.80
2018-08-19T12:30:11.298Z,26.90
2018-08-19T12:32:39.014Z,27.00
2018-08-19T12:35:06.675Z,27.00
2018-08-19T12:37:34.363Z,27.00
2018-08-19T12:40:01.951Z,27.00
2018-08-19T12:42:30.643Z,26.90
2018-08-19T12:45:03.935Z,27.00
2018-08-19T12:47:31.562Z,27.20
2018-08-19T12:50:01.679Z,27.50
2018-08-19T12:52:31.240Z,27.50
2018-08-19T12:55:03.736Z,27.80
2018-08-19T12:57:31.449Z,28.30
2018-08-19T13:00:03.350Z,28.50
2018-08-19T13:02:32.355Z,28.70
2018-08-19T13:04:59.974Z,28.70
2018-08-19T13:07:27.670Z,28.90
2018-08-19T13:09:55.398Z,29.60
2018-08-19T13:12:23.106Z,30.30
2018-08-19T13:14:50.780Z,30.80
2018-08-19T13:17:18.377Z,31.40
2018-08-19T13:19:52.662Z,32.20
2018-08-19T13:22:21.322Z,32.60
2018-08-19T13:24:48.884Z,33.20
2018-08-19T13:27:16.538Z,33.40
2018-08-19T13:29:44.171Z,33.70
2018-08-19T13:32:15.471Z,34.00
2018-08-19T13:34:43.089Z,34.30
2018-08-19T13:37:10.670Z,34.60
2018-08-19T13:39:38.294Z,34.60
2018-08-19T13:42:06.435Z,34.90
2018-08-19T13:44:34.103Z,34.80
2018-08-19T13:47:01.782Z,34.70
2018-08-19T13:49:29.434Z,34.80
2018-08-19T13:52:00.328Z,34.90
2018-08-19T13:54:28.003Z,35.70
2018-08-19T13:56:55.710Z,36.30
2018-08-19T13:59:23.339Z,37.10
2018-08-19T14:01:51.022Z,37.30
2018-08-19T14:04:18.646Z,37.70
2018-08-19T14:06:46.442Z,38.80
2018-08-19T14:09:14.386Z,38.80
2018-08-19T14:11:41.978Z,38.80
2018-08-19T14:14:10.288Z,39.00
2018-08-19T14:16:37.905Z,39.30
2018-08-19T14:19:05.721Z,39.30
2018-08-19T14:21:33.325Z,39.00
2018-08-19T14:24:01.735Z,39.20
2018-08-19T14:26:33.274Z,39.40
2018-08-19T14:29:01.278Z,40.20
2018-08-19T14:31:29.314Z,39.60
2018-08-19T14:33:56.943Z,39.50
2018-08-19T14:36:24.579Z,40.10
2018-08-19T14:38:52.252Z,39.90
2018-08-19T14:41:19.865Z,38.70
2018-08-19T14:44:01.706Z,38.80
2018-08-19T14:46:30.354Z,37.90
2018-08-19T14:49:05.634Z,36.80
2018-08-19T14:51:46.139Z,37.50
2018-08-19T14:54:16.978Z,36.10
2018-08-19T14:56:44.658Z,34.80
2018-08-19T14:59:13.290Z,33.50
2018-08-19T15:01:40.898Z,32.90
2018-08-19T15:04:11.330Z,32.30
2018-08-19T15:06:39.109Z,32.00
2018-08-19T15:09:07.222Z,31.90
2018-08-19T15:11:34.907Z,31.70
2018-08-19T15:14:10.534Z,31.20
2018-08-19T15:16:38.170Z,31.20
2018-08-19T15:19:05.750Z,30.90
2018-08-19T15:21:33.367Z,30.90
2018-08-19T15:24:00.974Z,31.00
2018-08-19T15:26:28.619Z,30.70
2018-08-19T15:28:56.267Z,30.50
2018-08-19T15:31:28.571Z,30.50
2018-08-19T15:33:56.155Z,30.10
2018-08-19T15:36:23.830Z,30.30
2018-08-19T15:38:51.470Z,29.80
2018-08-19T15:41:19.187Z,29.80
2018-08-19T15:43:50.487Z,29.90
2018-08-19T15:46:18.120Z,29.70
2018-08-19T15:48:49.080Z,29.40
2018-08-19T15:51:17.792Z,29.30
2018-08-19T15:53:45.501Z,29.30
2018-08-19T15:56:13.219Z,29.00
2018-08-19T15:58:40.901Z,29.00
2018-08-19T16:01:19.974Z,29.20
2018-08-19T16:03:47.602Z,29.40
2018-08-19T16:06:15.195Z,29.30
2018-08-19T16:08:42.870Z,28.90
2018-08-19T16:11:10.578Z,28.80
2018-08-19T16:13:38.193Z,28.60
2018-08-19T16:16:08.783Z,28.30
2018-08-19T16:18:36.787Z,28.20
2018-08-19T16:21:04.407Z,28.10
2018-08-19T16:23:32.016Z,28.00
2018-08-19T16:25:59.600Z,27.90
2018-08-19T16:28:27.238Z,28.00
2018-08-19T16:30:54.758Z,28.10
2018-08-19T16:33:22.585Z,27.90
2018-08-19T16:35:50.243Z,27.70
2018-08-19T16:38:17.882Z,27.40
2018-08-19T16:40:45.476Z,27.30
2018-08-19T16:43:13.078Z,27.20
2018-08-19T16:45:40.725Z,27.30
2018-08-19T16:48:08.402Z,27.30
2018-08-19T16:50:36.104Z,27.20
2018-08-19T16:53:03.675Z,27.20
2018-08-19T16:55:31.942Z,27.00
2018-08-19T16:57:59.530Z,27.00
2018-08-19T17:00:27.109Z,27.10
2018-08-19T17:02:54.855Z,26.90
2018-08-19T17:05:30.025Z,26.90
2018-08-19T17:07:57.706Z,26.70
2018-08-19T17:10:27.623Z,27.00
2018-08-19T17:12:55.776Z,27.20
2018-08-19T17:15:23.418Z,27.00
2018-08-19T17:17:51.059Z,26.80
2018-08-19T17:20:18.657Z,26.70
2018-08-19T17:22:46.306Z,26.50
2018-08-19T17:25:19.607Z,26.40
2018-08-19T17:27:47.250Z,26.30
2018-08-19T17:30:17.692Z,26.40
2018-08-19T17:32:49.526Z,26.70
2018-08-19T17:35:16.999Z,26.80
2018-08-19T17:37:44.590Z,26.70
2018-08-19T17:40:12.205Z,26.60
2018-08-19T17:42:39.894Z,26.20
2018-08-19T17:45:11.510Z,26.00
2018-08-19T17:47:39.135Z,25.80
2018-08-19T17:50:06.857Z,25.70
2018-08-19T17:52:34.580Z,25.90
2018-08-19T17:55:02.294Z,26.00
2018-08-19T17:57:29.976Z,26.00
2018-08-19T17:59:57.631Z,26.00
2018-08-19T18:02:25.342Z,25.90
2018-08-19T18:04:52.977Z,25.80
2018-08-19T18:07:24.840Z,26.00
2018-08-19T18:09:56.469Z,25.90
2018-08-19T18:12:24.232Z,25.80
2018-08-19T18:14:52.046Z,25.70
2018-08-19T18:17:19.664Z,25.50
2018-08-19T18:19:47.295Z,25.40
2018-08-19T18:22:16.994Z,25.40
2018-08-19T18:24:48.529Z,25.30
2018-08-19T18:27:16.170Z,25.20
2018-08-19T18:29:45.322Z,25.10
2018-08-19T18:32:12.935Z,25.00
2018-08-19T18:34:40.910Z,24.90
2018-08-19T18:37:08.564Z,25.10
2018-08-19T18:39:36.206Z,25.00
2018-08-19T18:42:03.941Z,24.90
2018-08-19T18:44:31.601Z,24.70
2018-08-19T18:46:59.251Z,24.60
2018-08-19T18:49:26.861Z,25.00
2018-08-19T18:51:57.792Z,24.80
2018-08-19T18:54:32.169Z,24.60
2018-08-19T18:57:02.718Z,24.40
2018-08-19T18:59:31.437Z,24.30
2018-08-19T19:02:00.792Z,24.20
2018-08-19T19:04:28.654Z,24.10
2018-08-19T19:06:56.553Z,24.00
2018-08-19T19:09:24.230Z,23.90
2018-08-19T19:11:52.378Z,23.90
2018-08-19T19:14:21.006Z,23.80
2018-08-19T19:16:51.202Z,23.70
2018-08-19T19:19:19.158Z,23.60
2018-08-19T19:21:52.596Z,23.60
2018-08-19T19:24:40.855Z,23.40
2018-08-19T19:27:09.266Z,23.40
2018-08-19T19:29:37.095Z,23.40
2018-08-19T19:32:13.345Z,23.40
2018-08-19T19:34:41.190Z,23.30
2018-08-19T19:37:09.070Z,23.20
2018-08-19T19:39:36.702Z,23.20
2018-08-19T19:42:09.525Z,23.20
2018-08-19T19:44:37.278Z,23.10
2018-08-19T19:47:07.851Z,23.10
2018-08-19T19:49:48.728Z,23.00
2018-08-19T19:52:17.276Z,22.90
2018-08-19T19:54:44.990Z,22.80
2018-08-19T19:57:12.612Z,22.80
2018-08-19T19:59:40.331Z,22.80
2018-08-19T20:02:13.143Z,22.90
2018-08-19T20:04:40.878Z,22.90
2018-08-19T20:07:08.513Z,22.80
2018-08-19T20:09:36.219Z,22.80
2018-08-19T20:12:16.514Z,22.70
2018-08-19T20:14:48.419Z,22.60
2018-08-19T20:17:16.431Z,22.50
2018-08-19T20:19:44.619Z,22.40
2018-08-19T20:22:15.642Z,22.40
2018-08-19T20:24:44.646Z,22.30
2018-08-19T20:27:13.154Z,22.30
2018-08-19T20:29:41.566Z,22.20
2018-08-19T20:32:09.742Z,22.10
2018-08-19T20:34:37.426Z,22.10
2018-08-19T20:37:05.168Z,22.10
2018-08-19T20:39:32.861Z,22.10
2018-08-19T20:42:00.634Z,22.00
2018-08-19T20:44:28.306Z,22.00
2018-08-19T20:46:57.047Z,21.90
2018-08-19T20:49:25.687Z,21.90
2018-08-19T20:51:54.130Z,21.90
2018-08-19T20:54:21.842Z,21.80
2018-08-19T20:56:49.533Z,21.80
2018-08-19T20:59:25.515Z,21.70
2018-08-19T21:01:53.387Z,21.70
2018-08-19T21:04:20.986Z,21.70
2018-08-19T21:06:48.662Z,21.70
2018-08-19T21:09:16.310Z,21.70
2018-08-19T21:11:43.998Z,21.60
2018-08-19T21:14:11.643Z,21.60
2018-08-19T21:16:39.481Z,21.70
2018-08-19T21:19:07.143Z,21.60
2018-08-19T21:21:34.847Z,21.60
2018-08-19T21:24:02.527Z,21.70
2018-08-19T21:26:30.323Z,21.70
2018-08-19T21:29:01.926Z,21.70
2018-08-19T21:31:30.012Z,21.60
2018-08-19T21:33:57.692Z,21.60
2018-08-19T21:36:26.413Z,21.60
2018-08-19T21:38:54.011Z,21.50
2018-08-19T21:41:21.686Z,21.60
2018-08-19T21:43:49.328Z,21.50
2018-08-19T21:46:16.958Z,21.50
2018-08-19T21:48:44.628Z,21.40
2018-08-19T21:51:12.255Z,21.40
2018-08-19T21:53:39.851Z,21.50
2018-08-19T21:56:07.499Z,21.50
2018-08-19T21:58:35.223Z,21.40
2018-08-19T22:01:07.354Z,21.30
2018-08-19T22:03:40.658Z,21.30
2018-08-19T22:06:08.754Z,21.20
2018-08-19T22:08:36.418Z,21.20
2018-08-19T22:11:04.325Z,21.10
2018-08-19T22:13:31.958Z,21.10
2018-08-19T22:15:59.690Z,21.10
2018-08-19T22:18:28.624Z,21.00
2018-08-19T22:21:06.798Z,20.90
2018-08-19T22:23:41.705Z,20.90
2018-08-19T22:26:10.633Z,20.80
2018-08-19T22:28:38.832Z,20.80
2018-08-19T22:31:18.883Z,20.70
2018-08-19T22:33:48.633Z,20.70
2018-08-19T22:36:16.615Z,20.60
2018-08-19T22:38:44.248Z,20.60
2018-08-19T22:41:11.843Z,20.50
2018-08-19T22:43:39.458Z,20.50
2018-08-19T22:46:07.199Z,20.40
2018-08-19T22:48:43.998Z,20.40
2018-08-19T22:51:12.806Z,20.30
2018-08-19T22:53:40.471Z,20.30
2018-08-19T22:56:08.107Z,20.20
2018-08-19T22:58:36.233Z,20.20
2018-08-19T23:01:03.918Z,20.10
2018-08-19T23:03:31.603Z,20.00
2018-08-19T23:05:59.340Z,20.00
2018-08-19T23:08:30.250Z,19.90
2018-08-19T23:10:59.126Z,19.70
2018-08-19T23:13:38.151Z,19.70
2018-08-19T23:16:08.038Z,19.60
2018-08-19T23:18:39.638Z,19.60
2018-08-19T23:21:07.402Z,19.50
2018-08-19T23:23:35.126Z,19.50
2018-08-19T23:26:03.318Z,19.40
2018-08-19T23:28:30.998Z,19.40
2018-08-19T23:30:58.700Z,19.40
2018-08-19T23:33:26.410Z,19.30
2018-08-19T23:35:57.192Z,19.30
2018-08-19T23:38:24.844Z,19.30
2018-08-19T23:40:52.554Z,19.20
2018-08-19T23:43:20.271Z,19.10
2018-08-19T23:45:47.941Z,19.10
2018-08-19T23:48:18.930Z,19.10
2018-08-19T23:50:46.538Z,19.10
2018-08-19T23:53:14.246Z,19.00
2018-08-19T23:55:41.918Z,18.90
2018-08-19T23:58:09.654Z,18.80
